Time;durP1;ratioP1;P1;durP2;ratioP2;P2;SDS_P1;SDS_P2;PMS_P1;PMS_P2;Temp;Humidity;BMP_temperature;BMP_pressure;BME280_temperature;BME280_humidity;BME280_pressure;Samples;Min_cycle;Max_cycle;Signal;HPM_P1;HPM_P2
2023/02/12 00:01:49;;;;;;;;;63.33;46.33;;;;;4.16;92.97;100740.06;6278825;20;3624257;-47
2023/02/12 00:04:17;;;;;;;;;53.50;43.00;;;;;4.15;93.10;100739.19;6313974;20;2858737;-48
2023/02/12 00:06:47;;;;;;;;;58.67;40.67;;;;;4.04;93.84;100749.13;6281385;20;3629452;-50
2023/02/12 00:09:15;;;;;;;;;55.00;44.00;;;;;4.07;94.05;100748.22;6315171;20;2857622;-50
2023/02/12 00:11:44;;;;;;;;;57.50;45.50;;;;;3.95;94.36;100757.28;6281948;20;2863853;-47
2023/02/12 00:14:14;;;;;;;;;65.00;50.00;;;;;3.89;94.80;100765.34;6281349;20;3629479;-48
2023/02/12 00:16:43;;;;;;;;;60.00;45.50;;;;;3.98;94.67;100775.81;6311188;20;2874356;-49
2023/02/12 00:19:11;;;;;;;;;61.50;49.00;;;;;3.91;94.55;100774.16;6281696;20;2877432;-49
2023/02/12 00:21:41;;;;;;;;;58.33;45.00;;;;;3.94;94.20;100774.97;6280344;20;2861796;-45
2023/02/12 00:24:10;;;;;;;;;62.67;48.00;;;;;3.87;94.11;100751.19;6310843;20;3624326;-49
2023/02/12 00:26:39;;;;;;;;;63.00;47.50;;;;;3.81;94.29;100761.94;6313163;20;2885759;-48
2023/02/12 00:29:10;;;;;;;;;67.00;50.67;;;;;3.70;94.80;100765.63;6280648;20;2885785;-46
2023/02/12 00:31:39;;;;;;;;;56.00;45.50;;;;;3.70;94.87;100768.28;6311935;20;2849269;-48
2023/02/12 00:34:10;;;;;;;;;60.00;46.50;;;;;3.55;95.31;100771.19;6276241;20;2862818;-48
2023/02/12 00:36:39;;;;;;;;;60.00;48.00;;;;;3.47;95.50;100775.75;6281974;20;2865949;-48
2023/02/12 00:39:10;;;;;;;;;67.00;51.00;;;;;3.36;95.59;100788.28;6282776;20;2882709;-48
2023/02/12 00:41:40;;;;;;;;;64.33;48.00;;;;;3.21;95.79;100777.00;6312612;20;2881743;-48
2023/02/12 00:44:09;;;;;;;;;65.33;50.67;;;;;2.85;96.40;100784.53;6314843;20;3640024;-47
2023/02/12 00:46:39;;;;;;;;;66.67;51.00;;;;;2.73;97.15;100789.97;6317940;20;3625367;-46
2023/02/12 00:49:08;;;;;;;;;64.67;51.67;;;;;2.73;97.27;100779.38;6318873;20;2876325;-50
2023/02/12 00:51:38;;;;;;;;;69.00;52.00;;;;;2.50;97.17;100784.06;6314838;20;3632977;-48
2023/02/12 00:54:07;;;;;;;;;66.33;53.00;;;;;2.40;97.94;100775.34;6313634;20;3626354;-47
2023/02/12 00:56:37;;;;;;;;;72.67;55.33;;;;;2.68;98.38;100781.19;6317449;20;3647130;-47
2023/02/12 00:59:06;;;;;;;;;77.00;58.67;;;;;2.56;98.14;100776.06;6318455;20;3630568;-49
2023/02/12 01:01:35;;;;;;;;;65.00;50.00;;;;;2.79;99.11;100773.13;6312071;20;2869020;-51
2023/02/12 01:04:04;;;;;;;;;62.00;48.50;;;;;2.89;99.33;100769.47;6286182;20;2866017;-47
2023/02/12 01:06:33;;;;;;;;;58.50;45.00;;;;;2.82;99.74;100767.81;6287486;20;2863830;-47
2023/02/12 01:09:02;;;;;;;;;61.50;47.50;;;;;2.96;99.98;100770.28;6287676;20;2865083;-46
2023/02/12 01:11:30;;;;;;;;;64.00;52.00;;;;;2.97;99.84;100766.72;6283500;20;2871143;-51
2023/02/12 01:14:00;;;;;;;;;64.33;50.67;;;;;3.04;100.00;100763.09;6285519;20;2885785;-46
2023/02/12 01:16:30;;;;;;;;;63.00;47.00;;;;;3.03;100.00;100771.94;6313998;20;2494033;-49
2023/02/12 01:18:59;;;;;;;;;56.00;47.50;;;;;3.02;100.00;100764.88;6285784;20;2855609;-50
2023/02/12 01:21:32;;;;;;;;;59.00;47.50;;;;;2.99;100.00;100764.91;6279603;20;2498183;-53
2023/02/12 01:24:01;;;;;;;;;63.00;50.50;;;;;2.98;100.00;100765.84;6282656;20;2500321;-52
2023/02/12 01:26:31;;;;;;;;;61.33;47.67;;;;;2.91;100.00;100754.41;6285302;20;2873321;-52
2023/02/12 01:29:05;;;;;;;;;67.33;50.33;;;;;2.94;100.00;100766.75;6316803;20;2891006;-49
2023/02/12 01:31:39;;;;;;;;;61.00;46.33;;;;;2.92;100.00;100776.50;6314275;20;2868093;-49
2023/02/12 01:34:08;;;;;;;;;58.50;40.00;;;;;3.00;100.00;100774.63;6310405;20;2495091;-50
2023/02/12 01:36:36;;;;;;;;;59.00;48.00;;;;;2.97;100.00;100762.28;6278042;20;2499264;-47
2023/02/12 01:39:06;;;;;;;;;60.50;48.50;;;;;2.96;100.00;100770.28;6279406;20;2860688;-49
2023/02/12 01:41:41;;;;;;;;;60.00;48.50;;;;;2.97;100.00;100762.28;6280623;20;2500306;-47
2023/02/12 01:44:24;;;;;;;;;61.33;45.33;;;;;3.05;100.00;100764.81;6282046;20;2882771;-49
2023/02/12 01:47:03;;;;;;;;;57.00;44.00;;;;;2.99;100.00;100771.09;6311440;20;2494119;-49
2023/02/12 01:49:36;;;;;;;;;60.50;45.00;;;;;2.94;100.00;100770.28;6283428;20;2867089;-46
2023/02/12 01:52:31;;;;;;;;;60.33;47.67;;;;;2.92;100.00;100773.84;6285849;20;2860721;-47
2023/02/12 01:55:06;;;;;;;;;65.50;50.00;;;;;2.85;100.00;100779.25;6317394;20;2862954;-51
2023/02/12 01:57:42;;;;;;;;;69.00;52.33;;;;;2.79;100.00;100781.06;6283760;20;3643046;-49
2023/02/12 02:00:21;;;;;;;;;64.67;44.00;;;;;2.70;100.00;100778.53;6311434;20;3633622;-49
2023/02/12 02:02:58;;;;;;;;;68.00;47.67;;;;;2.69;100.00;100787.41;6315126;20;3636847;-50
2023/02/12 02:06:06;;;;;;;;;62.00;50.00;;;;;2.58;100.00;100784.84;6315439;20;2862171;-50
2023/02/12 02:08:38;;;;;;;;;69.00;50.33;;;;;2.55;100.00;100782.25;6282582;20;2886800;-48
2023/02/12 02:17:25;;;;;;;;;70.33;50.33;;;;;2.51;100.00;100788.50;6283458;20;2892047;-51
2023/02/12 02:20:39;;;;;;;;;58.00;45.00;;;;;2.60;100.00;100791.03;6309352;20;2865896;-52
2023/02/12 02:23:38;;;;;;;;;59.33;42.00;;;;;2.67;100.00;100800.66;6279813;20;2885734;-47
2023/02/12 02:27:05;;;;;;;;;78.67;57.00;;;;;2.51;100.00;100810.56;6315456;20;3632567;-46
2023/02/12 02:30:30;;;;;;;;;68.00;49.33;;;;;2.66;100.00;100809.53;6312052;20;2894140;-47
2023/02/12 02:33:23;;;;;;;;;63.00;49.50;;;;;2.49;100.00;100814.13;6314187;20;2876501;-47
2023/02/12 02:36:04;;;;;;;;;64.00;50.50;;;;;2.36;100.00;100816.88;6284611;20;2868038;-48
2023/02/12 02:38:52;;;;;;;;;63.00;48.00;;;;;2.27;100.00;100806.38;6283409;20;2864921;-48
2023/02/12 02:41:36;;;;;;;;;60.00;42.00;;;;;2.36;100.00;100808.06;6275306;20;2516969;-51
2023/02/12 02:44:31;;;;;;;;;67.67;48.33;;;;;2.21;100.00;100814.38;6281575;20;2868144;-46
2023/02/12 02:47:08;;;;;;;;;59.50;47.50;;;;;2.22;100.00;100815.28;6313371;20;2856512;-46
2023/02/12 02:50:17;;;;;;;;;67.33;48.33;;;;;2.23;100.00;100820.53;6278804;20;2877395;-46
2023/02/12 02:53:07;;;;;;;;;67.33;49.00;;;;;2.20;100.00;100820.59;6310744;20;2882703;-51
2023/02/12 02:55:49;;;;;;;;;62.00;48.00;;;;;2.18;100.00;100814.41;6312451;20;2870071;-51
2023/02/12 02:58:30;;;;;;;;;67.50;54.50;;;;;2.17;100.00;100820.63;6281428;20;2877497;-49
2023/02/12 03:01:32;;;;;;;;;56.50;45.00;;;;;2.15;100.00;100822.38;6278666;20;2862818;-49
2023/02/12 03:04:46;;;;;;;;;69.00;49.33;;;;;2.23;100.00;100819.69;6277817;20;2887020;-49
2023/02/12 03:07:45;;;;;;;;;61.50;48.50;;;;;2.35;100.00;100825.75;6304714;20;2500389;-48
2023/02/12 03:10:28;;;;;;;;;64.67;48.67;;;;;2.34;100.00;100826.66;6278609;20;2879456;-47
2023/02/12 03:13:16;;;;;;;;;62.50;49.50;;;;;2.30;100.00;100831.97;6313906;20;2864866;-45
2023/02/12 03:16:01;;;;;;;;;63.50;50.50;;;;;2.30;100.00;100842.59;6280566;20;2497371;-49
2023/02/12 03:19:11;;;;;;;;;63.00;49.50;;;;;2.19;100.00;100834.72;6280398;20;2869028;-49
2023/02/12 03:22:07;;;;;;;;;65.33;47.00;;;;;2.13;100.00;100837.41;6274954;20;3632658;-46
2023/02/12 03:24:55;;;;;;;;;65.67;49.00;;;;;1.96;100.00;100850.81;6308027;20;2878473;-50
2023/02/12 03:27:33;;;;;;;;;74.00;55.33;;;;;2.05;100.00;100847.19;6314146;20;3635676;-50
2023/02/12 03:30:03;;;;;;;;;91.67;67.67;;;;;2.03;100.00;100855.19;6308423;20;3647151;-50
2023/02/12 03:33:06;;;;;;;;;64.00;45.00;;;;;1.82;100.00;100872.09;6309855;20;2876537;-50
2023/02/12 03:35:54;;;;;;;;;68.00;49.00;;;;;1.36;100.00;100882.94;6277863;20;2877506;-48
2023/02/12 03:38:38;;;;;;;;;60.00;46.00;;;;;1.24;100.00;100873.31;6310558;20;2858636;-47
2023/02/12 03:41:34;;;;;;;;;63.00;48.50;;;;;1.24;100.00;100877.72;6276547;20;2875768;-45
2023/02/12 03:44:45;;;;;;;;;63.00;50.00;;;;;1.25;100.00;100876.81;6276930;20;2500308;-47
2023/02/12 03:47:40;;;;;;;;;75.00;56.50;;;;;1.36;100.00;100888.22;6283660;20;2881555;-46
2023/02/12 03:50:31;;;;;;;;;74.50;56.50;;;;;1.41;100.00;100894.38;6278033;20;2867974;-45
2023/02/12 03:53:00;;;;;;;;;78.67;58.67;;;;;1.02;100.00;100898.91;6279764;20;2890911;-49
2023/02/12 03:55:37;;;;;;;;;69.67;55.00;;;;;0.87;100.00;100906.94;6313427;20;2875406;-48
2023/02/12 03:58:13;;;;;;;;;70.67;56.67;;;;;0.98;100.00;100912.19;6312051;20;2874268;-46
2023/02/12 04:00:43;;;;;;;;;74.67;57.00;;;;;0.45;100.00;100911.38;6307976;20;2890939;-46
2023/02/12 04:03:12;;;;;;;;;69.50;56.50;;;;;0.40;100.00;100913.16;6308227;20;2864929;-47
2023/02/12 04:05:41;;;;;;;;;66.50;53.00;;;;;0.52;100.00;100918.41;6280662;20;2871145;-46
2023/02/12 04:08:12;;;;;;;;;67.50;54.00;;;;;0.22;100.00;100917.53;6282193;20;2863833;-45
2023/02/12 04:11:32;;;;;;;;;80.33;58.00;;;;;0.48;100.00;100929.88;6277518;20;3643086;-46
2023/02/12 04:14:36;;;;;;;;;70.00;57.00;;;;;0.28;100.00;100927.22;6309798;20;2856614;-46
2023/02/12 04:17:41;;;;;;;;;77.67;58.67;;;;;0.40;100.00;100936.94;6282705;20;2887798;-46
2023/02/12 04:20:22;;;;;;;;;83.33;62.33;;;;;0.57;100.00;100942.19;6310515;20;3638928;-46
2023/02/12 04:23:34;;;;;;;;;94.67;72.00;;;;;0.61;100.00;100947.47;6313433;20;3658743;-45
2023/02/12 04:26:48;;;;;;;;;107.33;90.67;;;;;0.74;100.00;100955.38;6313370;20;3689986;-46
2023/02/12 04:29:53;;;;;;;;;120.33;95.00;;;;;0.38;100.00;100955.41;6277051;20;3694018;-46
2023/02/12 04:32:45;;;;;;;;;96.33;74.67;;;;;0.31;100.00;100955.41;6275979;20;3658625;-47
2023/02/12 04:35:33;;;;;;;;;95.67;71.33;;;;;0.50;100.00;100961.56;6312455;20;3660698;-52
2023/02/12 04:38:16;;;;;;;;;122.00;101.67;;;;;0.40;100.00;100961.56;6308918;20;3707532;-49
2023/02/12 04:40:47;;;;;;;;;116.67;93.67;;;;;-0.08;100.00;100962.38;6278870;20;3699268;-47
2023/02/12 04:43:36;;;;;;;;;133.50;106.00;;;;;-0.07;100.00;100964.16;6270878;20;3713881;-49
2023/02/12 04:46:08;;;;;;;;;96.00;71.33;;;;;0.06;100.00;100960.66;6274920;20;3647217;-44
2023/02/12 04:48:54;;;;;;;;;77.67;60.67;;;;;-0.34;100.00;100981.66;6309438;20;2880750;-49
2023/02/12 04:51:24;;;;;;;;;74.00;59.00;;;;;-0.70;100.00;100985.88;6309552;20;2871139;-46
2023/02/12 04:53:53;;;;;;;;;95.00;74.33;;;;;-0.59;100.00;100991.22;6278302;20;3651327;-46
2023/02/12 04:56:22;;;;;;;;;77.50;60.00;;;;;-0.51;100.00;100991.25;6312745;20;2879476;-49
2023/02/12 04:58:52;;;;;;;;;90.67;62.67;;;;;-0.89;100.00;100986.66;6279166;20;3657621;-51
2023/02/12 05:01:23;;;;;;;;;83.67;65.67;;;;;-0.82;100.00;100993.72;6308597;20;3630510;-46
2023/02/12 05:03:52;;;;;;;;;85.50;65.00;;;;;-0.59;100.00;100991.22;6303769;20;2892120;-49
2023/02/12 05:06:22;;;;;;;;;85.00;59.00;;;;;-0.48;100.00;100999.19;6280261;20;3658636;-45
2023/02/12 05:08:55;;;;;;;;;83.00;63.33;;;;;-0.77;100.00;100997.25;6306444;20;3650351;-47
2023/02/12 05:11:25;;;;;;;;;86.00;65.00;;;;;-0.76;100.00;101009.59;6305563;20;3659816;-51
2023/02/12 05:13:54;;;;;;;;;80.00;63.00;;;;;-0.63;100.00;101004.38;6306118;20;2881651;-46
2023/02/12 05:16:24;;;;;;;;;81.00;64.67;;;;;-0.75;100.00;101018.38;6277512;20;3626795;-49
2023/02/12 05:18:54;;;;;;;;;88.00;64.67;;;;;-0.71;100.00;101020.16;6310482;20;3650321;-46
2023/02/12 05:21:23;;;;;;;;;87.67;64.00;;;;;-0.66;100.00;101034.25;6309760;20;3650291;-48
2023/02/12 05:23:53;;;;;;;;;87.67;64.67;;;;;-0.83;100.00;101034.16;6312955;20;2893201;-49
2023/02/12 05:26:22;;;;;;;;;85.33;65.67;;;;;-0.91;100.00;101030.59;6316433;20;3652394;-47
2023/02/12 05:28:52;;;;;;;;;81.00;61.00;;;;;-0.76;100.00;101049.16;6318138;20;2898304;-48
2023/02/12 05:31:22;;;;;;;;;83.00;61.67;;;;;-0.58;100.00;101040.47;6311681;20;2883742;-47
2023/02/12 05:33:52;;;;;;;;;78.33;56.33;;;;;-0.43;100.00;101050.22;6314632;20;2891045;-45
2023/02/12 05:36:23;;;;;;;;;88.67;63.67;;;;;-0.26;100.00;101045.91;6313219;20;3649427;-46
2023/02/12 05:38:59;;;;;;;;;81.00;62.67;;;;;-0.37;100.00;101050.25;6314904;20;3628510;-47
2023/02/12 05:41:33;;;;;;;;;84.00;60.33;;;;;-1.10;100.00;101053.28;6314583;20;2901406;-48
2023/02/12 05:44:05;;;;;;;;;80.33;58.67;;;;;-1.41;100.00;101060.03;6315318;20;3642080;-46
2023/02/12 05:46:34;;;;;;;;;68.50;55.50;;;;;-1.24;100.00;101062.81;6314016;20;2871210;-45
2023/02/12 05:49:02;;;;;;;;;68.00;53.00;;;;;-1.46;100.00;101064.38;6278010;20;2493031;-47
2023/02/12 05:51:31;;;;;;;;;68.00;51.50;;;;;-1.56;100.00;101069.53;6282247;20;2498641;-47
2023/02/12 05:54:03;;;;;;;;;64.00;46.00;;;;;-1.18;100.00;101073.44;6282185;20;2492064;-45
2023/02/12 05:56:50;;;;;;;;;71.00;55.50;;;;;-1.24;100.00;101068.09;6284305;20;2872186;-45
2023/02/12 05:59:22;;;;;;;;;67.00;52.50;;;;;-0.99;100.00;101074.47;6282989;20;2865982;-45
2023/02/12 06:01:52;;;;;;;;;68.00;54.00;;;;;-0.87;100.00;101085.06;6278591;20;2500392;-46
2023/02/12 06:04:27;;;;;;;;;75.67;56.67;;;;;-1.11;100.00;101084.03;6283830;20;2893084;-49
2023/02/12 06:06:56;;;;;;;;;78.50;61.50;;;;;-1.00;100.00;101083.22;6312115;20;2877520;-51
2023/02/12 06:09:26;;;;;;;;;91.67;67.00;;;;;-0.96;100.00;101095.56;6285376;20;3636727;-51
2023/02/12 06:12:11;;;;;;;;;105.33;76.67;;;;;-1.19;100.00;101090.97;6315640;20;3676288;-52
2023/02/12 06:14:42;;;;;;;;;104.00;76.33;;;;;-1.19;100.00;101109.41;6279521;20;3686724;-46
2023/02/12 06:17:11;;;;;;;;;100.00;75.33;;;;;-1.15;100.00;101120.88;6284472;20;3676336;-48
2023/02/12 06:19:41;;;;;;;;;109.33;78.00;;;;;-0.99;100.00;101120.16;6282428;20;3697213;-48
2023/02/12 06:22:11;;;;;;;;;95.33;69.33;;;;;-0.68;100.00;101123.03;6285519;20;3663799;-45
2023/02/12 06:24:40;;;;;;;;;104.33;73.67;;;;;-0.41;100.00;101122.34;6312671;20;3697156;-47
2023/02/12 06:27:10;;;;;;;;;98.67;72.33;;;;;-0.45;100.00;101131.09;6283390;20;3671165;-45
2023/02/12 06:29:40;;;;;;;;;101.67;78.00;;;;;0.63;100.00;101133.38;6317170;20;3681522;-46
2023/02/12 06:32:12;;;;;;;;;129.67;98.33;;;;;2.17;96.43;101134.13;6314985;20;3693035;-47
2023/02/12 06:34:42;;;;;;;;;105.00;85.33;;;;;2.06;92.69;101138.59;6280987;20;3698164;-46
2023/02/12 06:37:11;;;;;;;;;109.00;83.67;;;;;2.13;91.39;101147.38;6281988;20;3698237;-48
2023/02/12 06:39:41;;;;;;;;;128.67;102.67;;;;;2.13;91.47;101152.66;6280301;20;3714046;-45
2023/02/12 06:42:11;;;;;;;;;101.00;78.33;;;;;2.10;91.47;101152.69;6282562;20;3692962;-47
2023/02/12 06:44:41;;;;;;;;;97.33;73.00;;;;;2.46;90.84;101156.09;6313434;20;3672600;-47
2023/02/12 06:47:10;;;;;;;;;94.00;68.00;;;;;3.41;88.30;101160.78;6283956;20;3654409;-45
2023/02/12 06:49:40;;;;;;;;;89.00;69.00;;;;;2.95;87.37;101161.09;6310496;20;3655542;-47
2023/02/12 06:52:10;;;;;;;;;88.67;66.00;;;;;3.35;85.65;101161.72;6315467;20;3640899;-45
2023/02/12 06:54:39;;;;;;;;;96.00;76.00;;;;;3.36;86.57;101171.41;6314366;20;3676357;-48
2023/02/12 06:57:09;;;;;;;;;85.67;61.33;;;;;3.34;86.72;101170.53;6284507;20;3646179;-45
2023/02/12 06:59:39;;;;;;;;;89.00;63.00;;;;;4.37;84.17;101172.16;6313730;20;3654449;-48
2023/02/12 07:02:10;;;;;;;;;87.00;66.00;;;;;4.98;79.80;101181.13;6278645;20;3651820;-46
2023/02/12 07:04:40;;;;;;;;;83.67;63.33;;;;;5.35;79.70;101184.13;6312996;20;3647149;-49
2023/02/12 07:07:10;;;;;;;;;90.33;71.00;;;;;5.57;78.31;101184.63;6281647;20;3657539;-48
2023/02/12 07:09:39;;;;;;;;;94.33;75.33;;;;;6.74;74.62;101185.97;6278389;20;3676307;-47
2023/02/12 07:12:09;;;;;;;;;89.33;71.33;;;;;7.22;70.39;101196.47;6284520;20;3662770;-47
2023/02/12 07:14:39;;;;;;;;;83.33;61.67;;;;;8.21;67.22;101207.31;6282016;20;3651324;-51
2023/02/12 07:17:09;;;;;;;;;92.67;72.67;;;;;9.24;60.33;101207.88;6313657;20;3684627;-49
2023/02/12 07:19:38;;;;;;;;;98.00;79.25;;;;;9.04;58.91;101213.00;6285545;20;4434615;-46
2023/02/12 07:22:08;;;;;;;;;101.67;84.33;;;;;7.87;61.92;101214.47;6313862;20;3688787;-49
2023/02/12 07:24:38;;;;;;;;;97.67;80.33;;;;;8.76;61.67;101221.84;6278018;20;3679620;-47
2023/02/12 07:27:07;;;;;;;;;84.00;63.00;;;;;9.10;58.61;101236.91;6280079;20;2875375;-52
2023/02/12 07:29:37;;;;;;;;;83.33;62.00;;;;;8.06;62.71;101230.91;6314200;20;3652359;-47
2023/02/12 07:32:06;;;;;;;;;84.67;66.33;;;;;8.33;62.86;101223.06;6281465;20;3659798;-47
2023/02/12 07:34:36;;;;;;;;;84.00;65.33;;;;;7.07;64.66;101244.88;6314038;20;3653493;-51
2023/02/12 07:37:06;;;;;;;;;87.33;68.33;;;;;8.96;60.31;101243.56;6282258;20;3680544;-50
2023/02/12 07:39:35;;;;;;;;;78.67;67.00;;;;;9.19;58.19;101242.00;6284684;20;3637789;-51
2023/02/12 07:42:04;;;;;;;;;91.50;75.50;;;;;8.38;61.17;101250.56;6286884;20;4424225;-46
2023/02/12 07:44:34;;;;;;;;;82.00;66.67;;;;;7.31;64.69;101245.25;6312122;20;3656664;-47
2023/02/12 07:47:04;;;;;;;;;85.33;66.33;;;;;5.19;73.24;101243.84;6280979;20;3678414;-61
2023/02/12 07:49:34;;;;;;;;;167.33;137.67;;;;;4.76;76.52;101249.72;6281893;20;3732565;-62
2023/02/12 07:52:05;;;;;;;;;269.00;231.50;;;;;4.91;80.83;101248.66;6279338;20;4511744;-62
2023/02/12 07:54:34;;;;;;;;;97.00;78.00;;;;;4.28;81.44;101252.03;6280051;20;3665943;-62
2023/02/12 07:57:04;;;;;;;;;96.67;79.33;;;;;3.89;84.18;101252.41;6279829;20;3673315;-62
2023/02/12 07:59:34;;;;;;;;;88.00;68.00;;;;;3.53;86.12;101261.59;6282682;20;3659682;-62
2023/02/12 08:02:04;;;;;;;;;84.67;63.00;;;;;3.41;84.56;101261.66;6281172;20;2887892;-62
2023/02/12 08:04:33;;;;;;;;;94.00;78.33;;;;;3.81;83.16;101256.03;6312977;20;3647172;-62
2023/02/12 08:07:03;;;;;;;;;96.00;76.00;;;;;3.61;84.52;101262.41;6280423;20;3674197;-62
2023/02/12 08:09:33;;;;;;;;;87.00;68.33;;;;;4.12;82.76;101257.50;6281671;20;3647119;-62
2023/02/12 08:12:02;;;;;;;;;93.33;76.67;;;;;4.30;80.55;101263.56;6281055;20;3675267;-62
2023/02/12 08:14:33;;;;;;;;;205.25;184.75;;;;;3.93;82.00;101271.88;6282313;20;4503513;-62
2023/02/12 08:17:03;;;;;;;;;102.25;84.25;;;;;4.58;80.48;101278.31;6310995;20;3703415;-62
2023/02/12 08:19:34;;;;;;;;;95.33;78.33;;;;;4.54;81.15;101278.38;6314230;20;3671111;-62
2023/02/12 08:22:05;;;;;;;;;90.33;72.00;;;;;4.51;81.50;101271.28;6281356;20;3672705;-62
2023/02/12 08:24:35;;;;;;;;;92.33;76.00;;;;;4.54;82.35;101281.03;6279918;20;3669076;-62
2023/02/12 08:27:05;;;;;;;;;98.33;83.33;;;;;4.58;82.50;101280.06;6279781;20;3668005;-62
2023/02/12 08:29:34;;;;;;;;;109.67;90.00;;;;;4.43;83.35;101281.13;6281537;20;3694056;-61
2023/02/12 08:32:09;;;;;;;;;117.75;98.00;;;;;4.72;82.26;101294.13;6280051;20;3714885;-62
2023/02/12 08:34:37;;;;;;;;;135.50;108.00;;;;;5.24;80.95;101284.59;6274959;20;1952455;-62
2023/02/12 08:37:07;;;;;;;;;126.00;105.75;;;;;5.13;79.31;101291.81;6281818;20;4490936;-62
2023/02/12 08:39:35;;;;;;;;;124.50;105.00;;;;;5.25;79.05;101289.88;6272819;20;1959806;-62
2023/02/12 08:42:05;;;;;;;;;118.33;98.00;;;;;5.70;76.77;101289.22;6277527;20;3677420;-62
2023/02/12 08:44:35;;;;;;;;;96.00;85.00;;;;;5.12;78.57;101292.75;6279665;20;3674236;-62
2023/02/12 08:47:06;;;;;;;;;115.00;103.25;;;;;5.44;76.82;101293.16;6279191;20;4460789;-62
2023/02/12 08:49:36;;;;;;;;;120.00;105.50;;;;;5.86;76.90;101290.72;6277006;20;4467021;-61
2023/02/12 08:52:06;;;;;;;;;132.50;114.50;;;;;5.37;77.80;101290.59;6309938;20;4492019;-62
2023/02/12 08:54:36;;;;;;;;;147.25;124.00;;;;;5.30;77.71;101299.59;6279382;20;4513788;-62
2023/02/12 08:57:04;;;;;;;;;151.50;128.00;;;;;5.25;78.19;101307.66;6274154;20;1953412;-62
2023/02/12 08:59:34;;;;;;;;;91.00;65.67;;;;;5.52;78.73;101305.50;6282982;20;3657588;-62
2023/02/12 09:02:07;;;;;;;;;110.25;92.50;;;;;5.37;75.84;101315.47;6316275;20;3689245;-62
2023/02/12 09:04:35;;;;;;;;;111.00;100.50;;;;;4.60;78.76;101324.38;6311532;20;1943008;-62
2023/02/12 09:07:06;;;;;;;;;117.75;100.75;;;;;5.06;76.19;101323.00;6285796;20;4477342;-62
2023/02/12 09:09:37;;;;;;;;;114.00;97.00;;;;;5.71;73.87;101334.50;6308684;20;1936804;-62
2023/02/12 09:12:07;;;;;;;;;132.00;109.33;;;;;5.18;73.82;101337.91;6283561;20;3718001;-62
2023/02/12 09:14:37;;;;;;;;;114.75;96.00;;;;;5.57;72.36;101348.94;6280216;20;4450370;-61
2023/02/12 09:17:06;;;;;;;;;102.67;85.00;;;;;5.64;72.28;101348.81;6280731;20;3691001;-62
2023/02/12 09:19:36;;;;;;;;;95.00;76.00;;;;;5.46;73.26;101354.41;6287200;20;4425572;-62
2023/02/12 09:22:06;;;;;;;;;101.00;87.25;;;;;5.72;71.72;101352.25;6318320;20;4427357;-62
2023/02/12 09:24:37;;;;;;;;;109.00;93.50;;;;;5.60;72.05;101356.88;6317284;20;3684789;-63
2023/02/12 09:27:07;;;;;;;;;113.50;97.50;;;;;6.08;71.36;101357.06;6286280;20;3575292;-60
2023/02/12 09:29:37;;;;;;;;;103.50;86.50;;;;;6.15;70.52;101366.72;6315312;20;3694045;-62
2023/02/12 09:32:09;;;;;;;;;123.50;107.00;;;;;6.18;70.17;101366.69;6307404;20;1952545;-61
2023/02/12 09:34:39;;;;;;;;;106.33;86.33;;;;;5.93;70.53;101364.41;6285548;20;3695071;-62
2023/02/12 09:37:08;;;;;;;;;98.00;88.00;;;;;6.10;71.11;101373.94;6287274;20;3655558;-61
2023/02/12 09:39:39;;;;;;;;;106.00;88.00;;;;;5.78;72.18;101377.94;6284279;20;3683614;-61
2023/02/12 09:42:12;;;;;;;;;102.00;88.67;;;;;5.80;72.28;101381.47;6283113;20;3665874;-61
2023/02/12 09:45:25;;;;;;;;;157.00;134.25;;;;;5.44;71.61;101370.41;6283146;20;4500247;-61
2023/02/12 09:48:14;;;;;;;;;113.50;97.00;;;;;5.64;71.52;101377.25;6279314;20;4464870;-61
2023/02/12 09:50:58;;;;;;;;;113.50;89.75;;;;;5.97;70.38;101377.69;6282873;20;4450728;-62
2023/02/12 09:53:30;;;;;;;;;109.25;89.50;;;;;6.00;71.12;101390.97;6316441;20;4458577;-61
2023/02/12 09:56:01;;;;;;;;;118.25;97.00;;;;;5.61;71.36;101385.28;6317719;20;3685662;-62
2023/02/12 09:58:58;;;;;;;;;110.25;96.50;;;;;6.30;70.05;101385.16;6280814;20;3680537;-62
2023/02/12 10:01:28;;;;;;;;;124.67;97.00;;;;;6.53;69.69;101394.53;6284017;20;3701329;-61
2023/02/12 10:04:00;;;;;;;;;184.33;154.00;;;;;6.13;71.62;101389.88;6281942;20;3732637;-62
2023/02/12 10:06:48;;;;;;;;;110.67;86.67;;;;;6.58;69.87;101392.66;6278003;20;3708624;-62
2023/02/12 10:09:47;;;;;;;;;138.00;125.50;;;;;6.75;69.53;101387.91;6274394;20;1955702;-62
2023/02/12 10:12:59;;;;;;;;;102.00;93.25;;;;;6.03;70.46;101390.91;6282334;20;4427448;-62
2023/02/12 10:15:50;;;;;;;;;110.75;91.50;;;;;6.22;70.23;101402.19;6309784;20;4447117;-62
2023/02/12 10:18:43;;;;;;;;;100.67;84.33;;;;;6.18;70.83;101406.69;6314665;20;3669011;-60
2023/02/12 10:21:43;;;;;;;;;100.33;83.33;;;;;6.01;71.00;101400.75;6281993;20;3679459;-62
2023/02/12 10:24:37;;;;;;;;;98.33;80.67;;;;;6.37;70.01;101408.16;6277558;20;3695052;-62
2023/02/12 10:27:21;;;;;;;;;110.00;97.00;;;;;6.18;70.42;101398.69;6280205;20;4459799;-62
2023/02/12 10:29:52;;;;;;;;;102.00;88.33;;;;;5.92;72.11;101409.72;6280077;20;3668042;-62
2023/02/12 10:32:37;;;;;;;;;135.43;116.86;;;;;6.13;71.88;101412.13;6293704;20;2533720;-63
2023/02/12 10:35:18;;;;;;;;;104.75;82.50;;;;;6.27;71.04;101413.69;6280559;20;3699320;-62
2023/02/12 10:38:00;;;;;;;;;142.00;112.50;;;;;6.66;71.86;101422.81;6306986;20;1958710;-59
2023/02/12 10:40:37;;;;;;;;;123.75;104.25;;;;;7.22;69.74;101426.19;6281167;20;4487815;-59
2023/02/12 10:43:12;;;;;;;;;95.00;84.25;;;;;7.32;68.83;101428.66;6284481;20;3653515;-59
2023/02/12 10:45:43;;;;;;;;;90.33;66.67;;;;;6.93;70.08;101432.09;6310488;20;3658675;-60
2023/02/12 10:48:34;;;;;;;;;87.67;65.00;;;;;6.51;71.72;101433.75;6314244;20;3659719;-60
2023/02/12 10:51:40;;;;;;;;;112.00;89.33;;;;;7.34;69.41;101433.06;6277972;20;3685703;-60
2023/02/12 10:54:35;;;;;;;;;88.67;63.33;;;;;6.77;70.50;101426.16;6282398;20;3667014;-60
2023/02/12 10:57:25;;;;;;;;;107.33;84.00;;;;;7.01;69.85;101426.63;6279690;20;3698364;-60
2023/02/12 11:00:18;;;;;;;;;121.00;106.50;;;;;7.38;69.26;101440.13;6276644;20;1958777;-60
2023/02/12 11:03:11;;;;;;;;;90.00;72.33;;;;;7.33;68.94;101430.44;6281642;20;3677378;-60
2023/02/12 11:05:43;;;;;;;;;87.33;68.33;;;;;7.31;70.43;101426.91;6279741;20;3672122;-59
2023/02/12 11:08:37;;;;;;;;;87.67;68.33;;;;;7.33;69.51;101425.97;6282859;20;3681536;-59
2023/02/12 11:11:30;;;;;;;;;92.33;80.67;;;;;7.55;70.95;101429.06;6278688;20;3677465;-59
2023/02/12 11:14:04;;;;;;;;;99.00;84.00;;;;;7.38;69.63;101429.44;6276738;20;1943067;-58
2023/02/12 11:16:42;;;;;;;;;90.33;74.33;;;;;7.52;69.28;101430.94;6282488;20;3659625;-60
2023/02/12 11:19:30;;;;;;;;;92.33;73.67;;;;;7.23;69.08;101422.59;6280873;20;3685665;-62
2023/02/12 11:22:17;;;;;;;;;89.33;72.33;;;;;7.75;68.08;101427.78;6278397;20;3672110;-63
2023/02/12 11:25:01;;;;;;;;;98.00;80.33;;;;;7.46;68.31;101432.81;6280154;20;3663841;-61
2023/02/12 11:27:31;;;;;;;;;91.67;77.33;;;;;7.68;67.61;101433.25;6275518;20;3668050;-60
2023/02/12 11:30:28;;;;;;;;;84.33;64.33;;;;;8.20;67.46;101430.31;6281108;20;3656500;-61
2023/02/12 11:33:34;;;;;;;;;88.00;73.67;;;;;8.64;64.84;101437.31;6280850;20;3673189;-61
2023/02/12 11:36:22;;;;;;;;;85.33;67.00;;;;;8.42;64.79;101436.06;6279826;20;3648169;-61
2023/02/12 11:38:56;;;;;;;;;91.00;71.33;;;;;8.17;65.81;101425.94;6313597;20;3688875;-61
2023/02/12 11:41:37;;;;;;;;;81.67;62.67;;;;;8.25;65.86;101433.78;6278465;20;3651441;-62
2023/02/12 11:44:25;;;;;;;;;81.33;64.33;;;;;8.76;64.84;101428.06;6313518;20;3631527;-63
2023/02/12 11:47:10;;;;;;;;;83.67;64.67;;;;;8.47;65.44;101427.00;6312444;20;3652425;-62